createdAt,value
2023-10-07T00:00:18.298Z,100327.59
2023-10-07T00:00:32.822Z,100329.34
2023-10-07T00:00:50.005Z,100325.81
2023-10-07T00:01:02.305Z,100333.63
2023-10-07T00:01:18.028Z,100322.34
2023-10-07T00:01:34.301Z,100330.16
2023-10-07T00:01:46.656Z,100329.34
2023-10-07T00:01:59.062Z,100328.44
2023-10-07T00:02:14.187Z,100323.25
2023-10-07T00:02:32.057Z,100326.72
2023-10-07T00:02:44.221Z,100323.25
2023-10-07T00:03:00.799Z,100328.44
2023-10-07T00:03:15.717Z,100325.81
2023-10-07T00:03:27.915Z,100325.81
2023-10-07T00:03:40.341Z,100332.75
2023-10-07T00:03:54.600Z,100327.56
2023-10-07T00:04:10.580Z,100322.34
2023-10-07T00:04:22.771Z,100327.59
2023-10-07T00:04:38.355Z,100324.19
2023-10-07T00:04:51.256Z,100326.81
2023-10-07T00:05:03.727Z,100325.09
2023-10-07T00:05:17.922Z,100326.78
2023-10-07T00:05:42.973Z,100326.78
2023-10-07T00:06:01.854Z,100326.75
2023-10-07T00:06:17.211Z,100326.81
2023-10-07T00:06:29.830Z,100323.38
2023-10-07T00:06:41.939Z,100331.16
2023-10-07T00:06:54.053Z,100320.75
2023-10-07T00:07:11.330Z,100325.13
2023-10-07T00:07:31.232Z,100328.59
2023-10-07T00:07:45.272Z,100322.50
2023-10-07T00:08:01.730Z,100327.69
2023-10-07T00:08:22.686Z,100321.59
2023-10-07T00:08:35.827Z,100324.19
2023-10-07T00:08:51.513Z,100319.94
2023-10-07T00:09:06.196Z,100319.94
2023-10-07T00:09:23.639Z,100319.94
2023-10-07T00:09:35.934Z,100324.31
2023-10-07T00:09:51.410Z,100315.72
2023-10-07T00:10:06.508Z,100320.91
2023-10-07T00:10:26.607Z,100319.16
2023-10-07T00:10:40.638Z,100315.72
2023-10-07T00:10:52.697Z,100313.06
2023-10-07T00:11:12.495Z,100313.09
2023-10-07T00:11:24.577Z,100310.63
2023-10-07T00:11:36.878Z,100313.22
2023-10-07T00:11:49.083Z,100314.91
2023-10-07T00:12:03.122Z,100314.91
2023-10-07T00:12:17.506Z,100315.75
2023-10-07T00:12:29.456Z,100312.34
2023-10-07T00:12:41.545Z,100312.41
2023-10-07T00:12:53.715Z,100312.44
2023-10-07T00:13:10.654Z,100312.41
2023-10-07T00:13:24.177Z,100305.47
2023-10-07T00:13:36.314Z,100304.59
2023-10-07T00:13:49.952Z,100310.66
2023-10-07T00:14:03.631Z,100307.13
2023-10-07T00:14:16.053Z,100308.91
2023-10-07T00:14:31.565Z,100306.31
2023-10-07T00:14:44.825Z,100302.88
2023-10-07T00:14:58.129Z,100306.41
2023-10-07T00:15:13.136Z,100299.47
2023-10-07T00:15:30.104Z,100298.59
2023-10-07T00:15:49.000Z,100303.81
2023-10-07T00:16:01.271Z,100302.88
2023-10-07T00:16:18.540Z,100303.72
2023-10-07T00:16:30.833Z,100298.53
2023-10-07T00:16:44.671Z,100300.28
2023-10-07T00:16:58.538Z,100302.03
2023-10-07T00:17:20.716Z,100305.50
2023-10-07T00:17:32.808Z,100303.84
2023-10-07T00:17:44.822Z,100299.56
2023-10-07T00:18:17.009Z,100303.94
2023-10-07T00:18:29.279Z,100298.75
2023-10-07T00:18:41.804Z,100295.31
2023-10-07T00:18:55.292Z,100298.75
2023-10-07T00:19:08.513Z,100295.31
2023-10-07T00:19:20.506Z,100295.31
2023-10-07T00:19:34.513Z,100297.94
2023-10-07T00:19:48.015Z,100288.38
2023-10-07T00:20:00.104Z,100294.41
2023-10-07T00:20:13.122Z,100295.31
2023-10-07T00:20:25.521Z,100293.53
2023-10-07T00:20:40.805Z,100291.75
2023-10-07T00:20:55.451Z,100291.81
2023-10-07T00:21:14.381Z,100288.41
2023-10-07T00:21:28.810Z,100288.50
2023-10-07T00:21:56.461Z,100287.66
2023-10-07T00:22:14.791Z,100279.78
2023-10-07T00:22:27.552Z,100290.13
2023-10-07T00:22:42.664Z,100289.22
2023-10-07T00:22:58.505Z,100290.03
2023-10-07T00:23:17.066Z,100295.19
2023-10-07T00:23:29.737Z,100291.69
2023-10-07T00:23:44.018Z,100294.28
2023-10-07T00:23:58.701Z,100291.63
2023-10-07T00:24:17.173Z,100293.31
2023-10-07T00:24:33.662Z,100297.66
2023-10-07T00:24:47.207Z,100293.25
2023-10-07T00:24:59.881Z,100294.13
2023-10-07T00:25:13.876Z,100298.53
2023-10-07T00:25:26.061Z,100293.41
2023-10-07T00:25:39.427Z,100296.84
2023-10-07T00:25:52.811Z,100296.88
2023-10-07T00:26:09.304Z,100296.94
2023-10-07T00:26:21.505Z,100284.84
2023-10-07T00:26:33.448Z,100287.50
2023-10-07T00:26:48.538Z,100290.97
2023-10-07T00:27:00.943Z,100289.22
2023-10-07T00:27:27.966Z,100290.97
2023-10-07T00:27:40.173Z,100286.63
2023-10-07T00:27:54.893Z,100293.53
2023-10-07T00:28:20.342Z,100287.50
2023-10-07T00:28:32.388Z,100284.00
2023-10-07T00:28:55.528Z,100289.22
2023-10-07T00:29:12.479Z,100284.84
2023-10-07T00:29:25.152Z,100291.75
2023-10-07T00:29:43.001Z,100288.25
2023-10-07T00:29:55.670Z,100288.25
2023-10-07T00:30:17.556Z,100293.47
2023-10-07T00:30:31.259Z,100288.34
2023-10-07T00:30:43.212Z,100284.84
2023-10-07T00:31:03.247Z,100285.81
2023-10-07T00:31:15.515Z,100291.91
2023-10-07T00:31:29.126Z,100287.63
2023-10-07T00:31:42.192Z,100285.88
2023-10-07T00:31:54.996Z,100288.50
2023-10-07T00:32:07.197Z,100288.50
2023-10-07T00:32:19.242Z,100280.66
2023-10-07T00:32:34.431Z,100284.09
2023-10-07T00:32:46.770Z,100282.31
2023-10-07T00:32:59.824Z,100290.94
2023-10-07T00:33:12.008Z,100285.78
2023-10-07T00:33:24.261Z,100282.34
2023-10-07T00:34:03.628Z,100284.09
2023-10-07T00:34:16.462Z,100283.19
2023-10-07T00:34:28.768Z,100285.91
2023-10-07T00:34:45.901Z,100287.63
2023-10-07T00:35:00.905Z,100279.88
2023-10-07T00:35:13.314Z,100282.44
2023-10-07T00:35:28.843Z,100279.78
2023-10-07T00:35:41.338Z,100284.97
2023-10-07T00:35:54.922Z,100279.78
2023-10-07T00:36:07.245Z,100284.97
2023-10-07T00:36:35.057Z,100280.66
2023-10-07T00:36:49.148Z,100281.50
2023-10-07T00:37:02.116Z,100276.31
2023-10-07T00:37:31.279Z,100278.09
2023-10-07T00:37:46.148Z,100283.31
2023-10-07T00:37:59.982Z,100278.13
2023-10-07T00:38:16.165Z,100284.22
2023-10-07T00:38:38.570Z,100283.34
2023-10-07T00:38:50.632Z,100286.84
2023-10-07T00:39:21.334Z,100279.91
2023-10-07T00:39:33.707Z,100281.69
2023-10-07T00:39:47.240Z,100284.38
2023-10-07T00:40:14.401Z,100288.75
2023-10-07T00:40:33.896Z,100287.03
2023-10-07T00:40:58.028Z,100290.47
2023-10-07T00:41:12.477Z,100287.00
2023-10-07T00:41:28.023Z,100284.44
2023-10-07T00:41:47.779Z,100287.13
2023-10-07T00:41:59.958Z,100285.41
2023-10-07T00:42:11.953Z,100283.69
2023-10-07T00:42:24.552Z,100288.00
2023-10-07T00:42:36.493Z,100291.50
2023-10-07T00:42:51.469Z,100289.78
2023-10-07T00:43:09.606Z,100288.94
2023-10-07T00:43:26.787Z,100284.69
2023-10-07T00:43:38.890Z,100289.03
2023-10-07T00:43:55.141Z,100289.91
2023-10-07T00:44:22.526Z,100290.81
2023-10-07T00:44:34.889Z,100289.06
2023-10-07T00:44:53.536Z,100285.63
2023-10-07T00:45:14.546Z,100288.25
2023-10-07T00:45:26.825Z,100282.19
2023-10-07T00:45:39.031Z,100282.22
2023-10-07T00:45:54.246Z,100282.22
2023-10-07T00:46:12.693Z,100282.22
2023-10-07T00:46:30.053Z,100280.56
2023-10-07T00:46:42.576Z,100278.91
2023-10-07T00:47:03.970Z,100280.63
2023-10-07T00:47:19.370Z,100281.44
2023-10-07T00:47:31.464Z,100277.13
2023-10-07T00:47:47.154Z,100282.34
2023-10-07T00:48:03.512Z,100275.38
2023-10-07T00:48:17.819Z,100278.78
2023-10-07T00:48:43.899Z,100272.75
2023-10-07T00:49:10.400Z,100277.13
2023-10-07T00:49:28.974Z,100271.16
2023-10-07T00:49:48.508Z,100272.13
2023-10-07T00:50:01.723Z,100278.13
2023-10-07T00:50:13.833Z,100273.72
2023-10-07T00:50:26.892Z,100274.59
2023-10-07T00:50:39.701Z,100276.34
2023-10-07T00:50:51.697Z,100278.91
2023-10-07T00:51:05.533Z,100276.34
2023-10-07T00:51:36.297Z,100273.75
2023-10-07T00:51:50.733Z,100275.50
2023-10-07T00:52:05.440Z,100272.88
2023-10-07T00:52:34.381Z,100277.19
2023-10-07T00:52:57.567Z,100269.41
2023-10-07T00:53:10.715Z,100271.13
2023-10-07T00:53:29.958Z,100274.66
2023-10-07T00:53:46.348Z,100275.50
2023-10-07T00:54:09.492Z,100275.50
2023-10-07T00:54:45.759Z,100276.28
2023-10-07T00:55:09.702Z,100276.41
2023-10-07T00:55:29.967Z,100278.28
2023-10-07T00:55:43.106Z,100290.44
2023-10-07T00:55:55.141Z,100286.16
2023-10-07T00:56:07.353Z,100278.41
2023-10-07T00:56:24.150Z,100279.31
2023-10-07T00:56:38.053Z,100285.31
2023-10-07T00:57:08.094Z,100286.16
2023-10-07T00:57:30.549Z,100286.16
2023-10-07T00:57:48.616Z,100291.38
2023-10-07T00:58:06.620Z,100286.28
2023-10-07T00:58:27.398Z,100287.09
2023-10-07T00:58:42.951Z,100286.19
2023-10-07T00:58:55.163Z,100280.97
2023-10-07T00:59:08.791Z,100286.19
2023-10-07T00:59:21.064Z,100280.16
2023-10-07T00:59:36.264Z,100281.91
2023-10-07T00:59:52.095Z,100282.78
2023-10-07T01:00:23.243Z,100279.34
2023-10-07T01:00:49.484Z,100276.75
2023-10-07T01:01:06.447Z,100278.53
2023-10-07T01:01:21.066Z,100281.19
2023-10-07T01:01:37.305Z,100278.63
2023-10-07T01:01:51.877Z,100278.53
2023-10-07T01:02:08.064Z,100277.69
2023-10-07T01:02:31.016Z,100282.03
2023-10-07T01:02:46.889Z,100275.88
2023-10-07T01:03:14.453Z,100277.53
2023-10-07T01:03:26.586Z,100277.44
2023-10-07T01:03:52.625Z,100278.31
2023-10-07T01:04:07.628Z,100268.78
2023-10-07T01:04:21.841Z,100276.50
2023-10-07T01:04:41.722Z,100267.03
2023-10-07T01:04:53.917Z,100268.69
2023-10-07T01:05:14.684Z,100272.13
2023-10-07T01:05:28.551Z,100270.44
2023-10-07T01:05:54.966Z,100267.84
2023-10-07T01:06:07.017Z,100267.69
2023-10-07T01:06:28.280Z,100272.00
2023-10-07T01:06:41.028Z,100271.03
2023-10-07T01:07:03.622Z,100267.56
2023-10-07T01:07:20.802Z,100266.75
2023-10-07T01:07:35.454Z,100270.16
2023-10-07T01:07:54.226Z,100270.19
2023-10-07T01:08:09.218Z,100262.41
2023-10-07T01:08:27.738Z,100261.56
2023-10-07T01:08:45.618Z,100262.53
2023-10-07T01:09:08.868Z,100261.69
2023-10-07T01:09:23.707Z,100260.03
2023-10-07T01:09:36.598Z,100258.31
2023-10-07T01:10:10.604Z,100258.38
2023-10-07T01:10:26.637Z,100260.09
2023-10-07T01:10:40.557Z,100253.19
2023-10-07T01:11:05.774Z,100258.44
2023-10-07T01:11:19.316Z,100263.63
2023-10-07T01:11:31.554Z,100254.06
2023-10-07T01:11:47.132Z,100257.63
2023-10-07T01:11:59.191Z,100260.22
2023-10-07T01:12:11.128Z,100258.53
2023-10-07T01:12:26.705Z,100264.59
2023-10-07T01:12:52.441Z,100253.38
2023-10-07T01:13:04.758Z,100257.69
2023-10-07T01:13:30.458Z,100265.50
2023-10-07T01:13:49.913Z,100252.50
2023-10-07T01:14:03.189Z,100264.59
2023-10-07T01:14:15.849Z,100261.97
2023-10-07T01:14:28.652Z,100253.31
2023-10-07T01:14:47.628Z,100258.53
2023-10-07T01:14:59.618Z,100258.53
2023-10-07T01:15:38.828Z,100256.78
2023-10-07T01:15:51.476Z,100257.59
2023-10-07T01:16:07.660Z,100260.16
2023-10-07T01:16:41.686Z,100254.13
2023-10-07T01:16:54.718Z,100256.66
2023-10-07T01:17:15.565Z,100260.16
2023-10-07T01:17:32.247Z,100255.81
2023-10-07T01:18:07.636Z,100258.41
2023-10-07T01:18:20.990Z,100261.81
2023-10-07T01:18:41.998Z,100256.63
2023-10-07T01:19:00.583Z,100262.69
2023-10-07T01:19:18.592Z,100255.72
2023-10-07T01:19:44.367Z,100261.00
2023-10-07T01:19:57.184Z,100260.16
2023-10-07T01:20:10.057Z,100252.38
2023-10-07T01:20:40.817Z,100258.41
2023-10-07T01:20:52.741Z,100254.94
2023-10-07T01:21:08.702Z,100253.19
2023-10-07T01:21:32.592Z,100252.28
2023-10-07T01:22:18.757Z,100254.00
2023-10-07T01:22:36.793Z,100262.63
2023-10-07T01:23:04.782Z,100252.22
2023-10-07T01:23:23.532Z,100251.34
2023-10-07T01:23:36.301Z,100261.72
2023-10-07T01:23:48.594Z,100253.88
2023-10-07T01:24:01.303Z,100248.72
2023-10-07T01:24:14.696Z,100257.44
2023-10-07T01:24:39.626Z,100260.84
2023-10-07T01:24:51.871Z,100253.88
2023-10-07T01:25:10.829Z,100258.19
2023-10-07T01:25:23.101Z,100259.81
2023-10-07T01:25:38.939Z,100256.38
2023-10-07T01:25:54.597Z,100253.00
2023-10-07T01:26:16.319Z,100254.72
2023-10-07T01:26:34.385Z,100256.50
2023-10-07T01:26:46.536Z,100258.38
2023-10-07T01:27:03.625Z,100255.78
2023-10-07T01:27:19.288Z,100259.25
2023-10-07T01:27:36.504Z,100254.16
2023-10-07T01:27:54.674Z,100259.38
2023-10-07T01:28:09.489Z,100258.66
2023-10-07T01:28:22.653Z,100261.28
2023-10-07T01:28:41.352Z,100260.41
2023-10-07T01:29:03.536Z,100259.53
2023-10-07T01:29:16.856Z,100263.06
2023-10-07T01:29:29.686Z,100262.19
2023-10-07T01:29:43.247Z,100268.25
2023-10-07T01:30:03.400Z,100270.84
2023-10-07T01:30:17.281Z,100263.97
2023-10-07T01:30:35.865Z,100265.75
2023-10-07T01:31:08.813Z,100261.41
2023-10-07T01:31:20.961Z,100263.97
2023-10-07T01:31:33.014Z,100264.78
2023-10-07T01:32:01.424Z,100269.09
2023-10-07T01:32:13.755Z,100263.06
2023-10-07T01:32:32.067Z,100267.38
2023-10-07T01:32:55.627Z,100266.47
2023-10-07T01:33:07.711Z,100269.16
2023-10-07T01:33:22.600Z,100270.03
2023-10-07T01:33:41.884Z,100265.81
2023-10-07T01:33:54.610Z,100267.53
2023-10-07T01:34:09.634Z,100271.81
2023-10-07T01:34:21.950Z,100265.78
2023-10-07T01:34:36.791Z,100264.91
2023-10-07T01:34:53.354Z,100266.63
2023-10-07T01:35:11.944Z,100267.50
2023-10-07T01:35:27.820Z,100268.28
2023-10-07T01:35:40.996Z,100270.84
2023-10-07T01:36:11.468Z,100263.03
2023-10-07T01:36:26.248Z,100264.72
2023-10-07T01:36:41.198Z,100268.16
2023-10-07T01:36:53.401Z,100268.22
2023-10-07T01:37:12.968Z,100266.47
2023-10-07T01:37:26.283Z,100266.47
2023-10-07T01:37:52.649Z,100262.97
2023-10-07T01:38:10.424Z,100261.16
2023-10-07T01:38:22.700Z,100263.88
2023-10-07T01:38:41.638Z,100257.81
2023-10-07T01:38:54.755Z,100257.00
2023-10-07T01:39:08.014Z,100256.09
2023-10-07T01:39:20.090Z,100250.91
2023-10-07T01:39:41.979Z,100255.22
2023-10-07T01:39:54.031Z,100256.91
2023-10-07T01:40:09.139Z,100253.44
2023-10-07T01:40:28.637Z,100249.97
2023-10-07T01:40:52.598Z,100252.53
2023-10-07T01:41:08.709Z,100250.78
2023-10-07T01:41:22.288Z,100245.56
2023-10-07T01:41:39.228Z,100250.75
2023-10-07T01:41:51.338Z,100247.34
2023-10-07T01:42:06.690Z,100255.09
2023-10-07T01:42:27.939Z,100256.88
2023-10-07T01:42:43.612Z,100248.19
2023-10-07T01:42:55.930Z,100254.31
2023-10-07T01:43:09.047Z,100258.66
2023-10-07T01:43:21.655Z,100259.47
2023-10-07T01:43:40.820Z,100262.09
2023-10-07T01:44:05.847Z,100262.94
2023-10-07T01:44:17.870Z,100263.75
2023-10-07T01:44:32.538Z,100257.69
2023-10-07T01:44:49.275Z,100266.28
2023-10-07T01:45:11.041Z,100262.78
2023-10-07T01:45:23.494Z,100265.38
2023-10-07T01:45:40.814Z,100260.22
2023-10-07T01:45:54.689Z,100263.63
2023-10-07T01:46:11.530Z,100262.00
2023-10-07T01:46:31.237Z,100268.91
2023-10-07T01:46:45.222Z,100262.91
2023-10-07T01:46:57.715Z,100262.91
2023-10-07T01:47:24.887Z,100259.41
2023-10-07T01:47:37.352Z,100251.63
2023-10-07T01:47:50.587Z,100261.16
2023-10-07T01:48:08.330Z,100256.78
2023-10-07T01:48:21.336Z,100253.31
2023-10-07T01:48:36.711Z,100255.03
2023-10-07T01:48:55.486Z,100252.41
2023-10-07T01:49:13.621Z,100256.66
2023-10-07T01:49:25.702Z,100255.78
2023-10-07T01:49:37.737Z,100253.19
2023-10-07T01:49:54.285Z,100258.41
2023-10-07T01:50:12.764Z,100260.09
2023-10-07T01:50:25.799Z,100254.06
2023-10-07T01:50:41.877Z,100251.47
2023-10-07T01:50:53.844Z,100258.53
2023-10-07T01:51:06.459Z,100256.78
2023-10-07T01:51:19.982Z,100255.09
2023-10-07T01:51:32.642Z,100249.91
2023-10-07T01:51:48.165Z,100251.63
2023-10-07T01:52:04.234Z,100262.91
2023-10-07T01:52:16.162Z,100254.34
2023-10-07T01:52:28.732Z,100260.44
2023-10-07T01:52:41.080Z,100253.56
2023-10-07T01:52:56.831Z,100255.34
2023-10-07T01:53:09.470Z,100263.19
2023-10-07T01:53:21.524Z,100256.31
2023-10-07T01:53:33.479Z,100257.19
2023-10-07T01:53:45.457Z,100262.38
2023-10-07T01:54:01.486Z,100258.91
2023-10-07T01:54:13.785Z,100262.38
2023-10-07T01:54:29.831Z,100254.66
2023-10-07T01:54:44.077Z,100252.91
2023-10-07T01:54:56.916Z,100258.94
2023-10-07T01:55:10.141Z,100254.66
2023-10-07T01:55:27.574Z,100263.31
2023-10-07T01:55:49.155Z,100260.72
2023-10-07T01:56:06.310Z,100257.16
2023-10-07T01:56:18.680Z,100257.16
2023-10-07T01:56:32.869Z,100264.94
2023-10-07T01:56:44.848Z,100267.50
2023-10-07T01:56:57.567Z,100265.75
2023-10-07T01:57:10.835Z,100267.44
2023-10-07T01:57:23.149Z,100262.25
2023-10-07T01:57:35.210Z,100263.09
2023-10-07T01:57:52.013Z,100263.09
2023-10-07T01:58:04.405Z,100263.16
2023-10-07T01:58:19.944Z,100263.09
2023-10-07T01:58:32.063Z,100269.97
2023-10-07T01:58:44.098Z,100262.19
2023-10-07T01:59:10.689Z,100264.78
2023-10-07T01:59:23.595Z,100265.66
2023-10-07T01:59:37.373Z,100267.38
2023-10-07T01:59:49.382Z,100267.31
2023-10-07T02:00:06.526Z,100262.13
2023-10-07T02:00:37.652Z,100271.63
2023-10-07T02:00:58.527Z,100274.16
2023-10-07T02:01:11.463Z,100273.31
2023-10-07T02:01:23.837Z,100275.91
2023-10-07T02:01:36.589Z,100274.09
2023-10-07T02:01:55.078Z,100270.59
2023-10-07T02:02:07.932Z,100275.78
2023-10-07T02:02:26.524Z,100268.00
2023-10-07T02:02:50.142Z,100263.63
2023-10-07T02:03:04.771Z,100271.47
2023-10-07T02:03:25.000Z,100269.72
2023-10-07T02:03:37.584Z,100279.31
2023-10-07T02:03:50.935Z,100280.16
2023-10-07T02:04:12.739Z,100277.56
2023-10-07T02:04:28.814Z,100273.28
2023-10-07T02:04:41.214Z,100276.75
2023-10-07T02:04:56.309Z,100279.31
2023-10-07T02:05:12.400Z,100278.44
2023-10-07T02:05:27.046Z,100279.31
2023-10-07T02:05:42.035Z,100274.09
2023-10-07T02:05:54.229Z,100276.72
2023-10-07T02:06:06.729Z,100277.66
2023-10-07T02:06:19.366Z,100277.66
2023-10-07T02:06:31.387Z,100275.88
2023-10-07T02:06:51.002Z,100274.16
2023-10-07T02:07:03.812Z,100269.78
2023-10-07T02:07:17.078Z,100274.09
2023-10-07T02:07:30.150Z,100272.38
2023-10-07T02:07:44.580Z,100275.78
2023-10-07T02:07:56.734Z,100273.25
2023-10-07T02:08:15.127Z,100270.69
2023-10-07T02:08:27.217Z,100275.88
2023-10-07T02:08:39.368Z,100276.72
2023-10-07T02:08:51.461Z,100275.00
2023-10-07T02:09:06.923Z,100275.00
2023-10-07T02:09:25.702Z,100283.66
2023-10-07T02:09:42.020Z,100278.50
2023-10-07T02:09:56.087Z,100280.25
2023-10-07T02:10:13.840Z,100277.66
2023-10-07T02:10:27.523Z,100276.72
2023-10-07T02:10:42.192Z,100281.91
2023-10-07T02:10:58.522Z,100276.72
2023-10-07T02:11:10.923Z,100280.19
2023-10-07T02:11:32.287Z,100281.06
2023-10-07T02:11:44.670Z,100277.56
2023-10-07T02:11:58.552Z,100274.09
2023-10-07T02:12:11.147Z,100273.25
2023-10-07T02:12:25.742Z,100274.97
2023-10-07T02:12:37.777Z,100278.44
2023-10-07T02:12:50.205Z,100274.16
2023-10-07T02:13:02.169Z,100277.66
2023-10-07T02:13:19.367Z,100270.72
2023-10-07T02:13:31.696Z,100275.91
2023-10-07T02:13:43.761Z,100274.16
2023-10-07T02:13:59.582Z,100277.66
2023-10-07T02:14:13.349Z,100278.50
2023-10-07T02:14:26.923Z,100272.38
2023-10-07T02:14:39.880Z,100274.94
2023-10-07T02:14:53.769Z,100270.59
2023-10-07T02:15:12.387Z,100269.78
2023-10-07T02:15:24.413Z,100268.91
2023-10-07T02:15:39.375Z,100279.31
2023-10-07T02:15:58.462Z,100275.78
2023-10-07T02:16:10.607Z,100272.47
2023-10-07T02:16:26.547Z,100273.28
2023-10-07T02:16:38.590Z,100270.69
2023-10-07T02:16:51.931Z,100273.28
2023-10-07T02:17:04.671Z,100271.53
2023-10-07T02:17:20.501Z,100279.34
2023-10-07T02:17:32.708Z,100275.88
2023-10-07T02:17:48.555Z,100272.38
2023-10-07T02:18:02.104Z,100274.94
2023-10-07T02:18:17.411Z,100274.91
2023-10-07T02:18:29.845Z,100270.56
2023-10-07T02:18:45.665Z,100270.59
2023-10-07T02:19:01.135Z,100278.41
2023-10-07T02:19:16.016Z,100271.56
2023-10-07T02:19:30.836Z,100274.16
2023-10-07T02:19:44.816Z,100270.72
2023-10-07T02:20:00.913Z,100273.34
2023-10-07T02:20:25.765Z,100278.53
2023-10-07T02:20:40.424Z,100270.81
2023-10-07T02:21:08.882Z,100273.44
2023-10-07T02:21:21.933Z,100269.88
2023-10-07T02:21:34.215Z,100272.47
2023-10-07T02:21:49.352Z,100275.00
2023-10-07T02:22:04.951Z,100274.16
2023-10-07T02:22:28.274Z,100272.50
2023-10-07T02:22:40.294Z,100274.28
2023-10-07T02:22:53.247Z,100270.81
2023-10-07T02:23:16.472Z,100274.38
2023-10-07T02:23:38.526Z,100277.00
2023-10-07T02:23:50.872Z,100270.94
2023-10-07T02:24:06.867Z,100272.63
2023-10-07T02:24:23.097Z,100273.47
2023-10-07T02:24:36.284Z,100270.84
2023-10-07T02:24:54.241Z,100274.28
2023-10-07T02:25:08.561Z,100272.50
2023-10-07T02:25:28.345Z,100272.50
2023-10-07T02:25:41.860Z,100272.50
2023-10-07T02:25:58.481Z,100274.22
2023-10-07T02:26:17.743Z,100270.81
2023-10-07T02:26:29.767Z,100275.19
2023-10-07T02:26:44.378Z,100267.41
2023-10-07T02:27:00.782Z,100269.16
2023-10-07T02:27:19.907Z,100270.84
2023-10-07T02:27:42.817Z,100269.09
2023-10-07T02:27:55.520Z,100273.44
2023-10-07T02:28:08.260Z,100266.47
2023-10-07T02:28:22.960Z,100267.38
2023-10-07T02:28:35.565Z,100270.81
2023-10-07T02:28:53.320Z,100265.66
2023-10-07T02:29:07.953Z,100265.63
2023-10-07T02:29:20.843Z,100266.50
2023-10-07T02:29:33.693Z,100263.03
2023-10-07T02:29:49.506Z,100266.47
2023-10-07T02:30:02.531Z,100263.84
2023-10-07T02:30:21.071Z,100273.31
2023-10-07T02:30:40.458Z,100270.81
2023-10-07T02:31:01.511Z,100265.63
2023-10-07T02:31:17.388Z,100266.47
2023-10-07T02:31:42.851Z,100270.81
2023-10-07T02:32:06.611Z,100270.94
2023-10-07T02:32:19.024Z,100268.25
2023-10-07T02:32:33.386Z,100275.22
2023-10-07T02:32:47.857Z,100268.25
2023-10-07T02:33:02.269Z,100269.16
2023-10-07T02:33:15.143Z,100269.97
2023-10-07T02:33:28.813Z,100265.66
2023-10-07T02:33:43.503Z,100270.84
2023-10-07T02:33:58.987Z,100266.56
2023-10-07T02:34:22.495Z,100263.97
2023-10-07T02:34:35.209Z,100266.56
2023-10-07T02:34:53.544Z,100266.50
2023-10-07T02:35:09.918Z,100269.94
2023-10-07T02:35:31.936Z,100268.22
2023-10-07T02:35:47.493Z,100267.25
2023-10-07T02:35:59.483Z,100271.53
2023-10-07T02:36:14.155Z,100266.38
2023-10-07T02:36:29.592Z,100266.34
2023-10-07T02:36:52.419Z,100272.38
2023-10-07T02:37:13.301Z,100272.38
2023-10-07T02:37:39.558Z,100275.06
2023-10-07T02:37:51.885Z,100275.94
2023-10-07T02:38:04.958Z,100273.41
2023-10-07T02:38:25.466Z,100277.78
2023-10-07T02:38:39.799Z,100279.53
2023-10-07T02:38:53.766Z,100275.22
2023-10-07T02:39:25.698Z,100269.16
2023-10-07T02:39:52.333Z,100276.03
2023-10-07T02:40:20.348Z,100284.75
2023-10-07T02:40:37.975Z,100263.03
2023-10-07T02:40:50.460Z,100270.81
2023-10-07T02:41:08.434Z,100269.88
2023-10-07T02:41:25.665Z,100268.09
2023-10-07T02:41:38.051Z,100270.69
2023-10-07T02:41:50.175Z,100268.94
2023-10-07T02:42:04.437Z,100268.91
2023-10-07T02:42:22.900Z,100271.50
2023-10-07T02:42:34.951Z,100261.97
2023-10-07T02:42:55.664Z,100273.19
2023-10-07T02:43:11.203Z,100260.22
2023-10-07T02:43:23.229Z,100267.13
2023-10-07T02:43:44.315Z,100266.22
2023-10-07T02:43:56.331Z,100261.09
2023-10-07T02:44:16.649Z,100261.94
2023-10-07T02:44:29.134Z,100262.88
2023-10-07T02:44:42.327Z,100256.78
2023-10-07T02:45:12.208Z,100260.28
2023-10-07T02:45:29.829Z,100263.75
2023-10-07T02:45:44.034Z,100256.78
2023-10-07T02:46:00.444Z,100257.63
2023-10-07T02:46:23.633Z,100256.72
2023-10-07T02:46:35.988Z,100258.53
2023-10-07T02:46:53.805Z,100250.72
2023-10-07T02:47:13.270Z,100259.38
2023-10-07T02:47:27.451Z,100252.47
2023-10-07T02:47:40.935Z,100256.75
2023-10-07T02:47:55.909Z,100250.63
2023-10-07T02:48:12.392Z,100252.34
2023-10-07T02:48:24.607Z,100250.63
2023-10-07T02:48:39.769Z,100249.78
2023-10-07T02:48:51.820Z,100253.25
2023-10-07T02:49:06.575Z,100251.47
2023-10-07T02:49:21.937Z,100252.28
2023-10-07T02:49:33.990Z,100254.84
2023-10-07T02:49:50.384Z,100251.34
2023-10-07T02:50:02.515Z,100261.72
2023-10-07T02:50:14.874Z,100254.84
2023-10-07T02:50:27.242Z,100258.25
2023-10-07T02:50:45.978Z,100260.78
2023-10-07T02:51:07.739Z,100258.19
2023-10-07T02:51:19.983Z,100257.28
2023-10-07T02:51:35.559Z,100259.81
2023-10-07T02:51:50.358Z,100261.56
2023-10-07T02:52:02.381Z,100257.16
2023-10-07T02:52:18.059Z,100258.00
2023-10-07T02:52:37.618Z,100254.53
2023-10-07T02:52:50.805Z,100259.66
2023-10-07T02:53:11.676Z,100252.66
2023-10-07T02:53:23.699Z,100255.34
2023-10-07T02:53:36.951Z,100258.78
2023-10-07T02:53:59.578Z,100257.03
2023-10-07T02:54:19.724Z,100262.16
2023-10-07T02:54:34.914Z,100263.88
2023-10-07T02:54:47.022Z,100252.56
2023-10-07T02:55:17.270Z,100267.28
2023-10-07T02:55:38.496Z,100267.09
2023-10-07T02:55:59.539Z,100261.84
2023-10-07T02:56:18.386Z,100264.41
2023-10-07T02:56:44.307Z,100264.41
2023-10-07T02:57:23.641Z,100266.06
2023-10-07T02:57:40.311Z,100265.13
2023-10-07T02:57:58.453Z,100266.78
2023-10-07T02:58:13.199Z,100269.34
2023-10-07T02:58:33.953Z,100276.22
2023-10-07T02:59:00.499Z,100264.97
2023-10-07T02:59:29.415Z,100273.63
2023-10-07T02:59:51.777Z,100263.22
2023-10-07T03:00:15.182Z,100272.66
2023-10-07T03:00:30.893Z,100276.06
2023-10-07T03:00:53.277Z,100278.63
2023-10-07T03:01:15.061Z,100273.41
2023-10-07T03:01:29.934Z,100274.25
2023-10-07T03:01:59.275Z,100271.56
2023-10-07T03:02:15.002Z,100274.28
2023-10-07T03:02:49.581Z,100274.28
2023-10-07T03:03:13.548Z,100276.22
2023-10-07T03:03:25.750Z,100274.72
2023-10-07T03:03:39.831Z,100273.94
2023-10-07T03:03:52.202Z,100273.16
2023-10-07T03:04:04.316Z,100272.38
2023-10-07T03:04:16.278Z,100270.72
2023-10-07T03:04:35.841Z,100270.72
2023-10-07T03:04:47.937Z,100273.34
2023-10-07T03:05:07.033Z,100271.66
2023-10-07T03:05:28.463Z,100272.53
2023-10-07T03:05:47.001Z,100276.03
2023-10-07T03:05:59.934Z,100267.31
2023-10-07T03:06:12.780Z,100277.81
2023-10-07T03:06:29.253Z,100282.09
2023-10-07T03:06:47.496Z,100272.66
2023-10-07T03:07:01.698Z,100273.47
2023-10-07T03:07:17.039Z,100280.44
2023-10-07T03:07:29.003Z,100273.53
2023-10-07T03:07:50.582Z,100280.44